Time;durP1;ratioP1;P1;durP2;ratioP2;P2;SDS_P1;SDS_P2;PMS_P1;PMS_P2;Temp;Humidity;BMP_temperature;BMP_pressure;BME280_temperature;BME280_humidity;BME280_pressure;Samples;Min_cycle;Max_cycle;Signal;HPM_P1;HPM_P2
2024/01/31 00:02:19;;;;;;;0.30;0.20;;;;;;;6.92;100.00;101928.56;5033759;28;20515;-50
2024/01/31 00:04:45;;;;;;;0.30;0.20;;;;;;;6.95;100.00;101920.66;5033937;28;20462;-50
2024/01/31 00:07:12;;;;;;;0.30;0.20;;;;;;;7.03;100.00;101924.31;5033440;28;20452;-50
2024/01/31 00:09:39;;;;;;;0.30;0.30;;;;;;;6.84;100.00;101924.03;5033564;28;20468;-50
2024/01/31 00:12:06;;;;;;;0.30;0.20;;;;;;;6.86;100.00;101924.09;5033936;28;20491;-50
2024/01/31 00:14:33;;;;;;;0.30;0.20;;;;;;;6.97;100.00;101919.81;5033941;28;20478;-51
2024/01/31 00:16:59;;;;;;;0.30;0.20;;;;;;;6.92;100.00;101913.59;5033142;28;20820;-51
2024/01/31 00:19:26;;;;;;;0.30;0.10;;;;;;;6.89;100.00;101910.91;5033370;28;20563;-51
2024/01/31 00:21:52;;;;;;;0.30;0.30;;;;;;;7.04;100.00;101926.97;5033218;28;20495;-50
2024/01/31 00:24:19;;;;;;;0.30;0.20;;;;;;;7.07;100.00;101921.69;5033317;28;20447;-51
2024/01/31 00:26:45;;;;;;;71.87;55.83;;;;;;;6.97;100.00;101918.91;5028343;28;20452;-50
2024/01/31 00:29:12;;;;;;;0.30;0.20;;;;;;;6.91;100.00;101932.06;4995886;28;20567;-50
2024/01/31 00:31:38;;;;;;;0.30;0.20;;;;;;;6.89;100.00;101932.06;5032255;28;20485;-50
2024/01/31 00:34:05;;;;;;;0.30;0.23;;;;;;;7.02;100.00;101934.00;5033100;28;20792;-50
2024/01/31 00:36:32;;;;;;;0.30;0.20;;;;;;;6.98;100.00;101923.34;5033078;28;20482;-51
2024/01/31 00:38:59;;;;;;;0.30;0.20;;;;;;;6.98;100.00;101920.69;5032916;28;20458;-51
2024/01/31 00:41:26;;;;;;;0.63;0.60;;;;;;;6.91;100.00;101921.50;5013446;28;20555;-51
2024/01/31 00:43:52;;;;;;;0.30;0.20;;;;;;;6.88;100.00;101924.13;5026608;28;20451;-51
2024/01/31 00:46:19;;;;;;;0.30;0.20;;;;;;;6.88;100.00;101921.47;5012262;28;20523;-50
2024/01/31 00:48:45;;;;;;;0.77;0.77;;;;;;;6.94;100.00;101919.78;5026422;28;20452;-50
2024/01/31 00:51:12;;;;;;;1.20;1.20;;;;;;;6.84;100.00;101920.50;5006938;28;20458;-50
2024/01/31 00:53:39;;;;;;;0.40;0.40;;;;;;;6.87;100.00;101919.69;5031767;28;20444;-50
2024/01/31 00:56:06;;;;;;;0.87;0.87;;;;;;;6.90;100.00;101917.09;5025152;28;20456;-51
2024/01/31 00:58:33;;;;;;;0.30;0.20;;;;;;;6.93;100.00;101918.00;5027715;28;20453;-50
2024/01/31 01:01:00;;;;;;;0.30;0.20;;;;;;;6.97;100.00;101918.91;5032602;28;21030;-50
2024/01/31 01:03:27;;;;;;;0.30;0.20;;;;;;;6.94;100.00;101918.88;5032353;28;20494;-50
2024/01/31 01:05:53;;;;;;;0.27;0.10;;;;;;;7.01;100.00;101928.69;5032693;28;20517;-51
2024/01/31 01:08:20;;;;;;;0.30;0.20;;;;;;;7.05;100.00;101928.72;5032115;28;20451;-51
2024/01/31 01:10:46;;;;;;;1.00;0.97;;;;;;;6.97;100.00;101942.72;5032619;28;20566;-50
2024/01/31 01:13:13;;;;;;;0.30;0.20;;;;;;;6.92;100.00;101944.41;5032638;28;20483;-50
2024/01/31 01:15:39;;;;;;;0.23;0.20;;;;;;;6.98;100.00;101931.25;5032692;28;20460;-50
2024/01/31 01:18:06;;;;;;;0.30;0.20;;;;;;;6.94;100.00;101937.38;5032665;28;20490;-50
2024/01/31 01:20:32;;;;;;;0.30;0.20;;;;;;;6.92;100.00;101929.44;5032722;28;20538;-49
2024/01/31 01:22:59;;;;;;;0.30;0.20;;;;;;;6.98;100.00;101932.16;5032584;28;20913;-50
2024/01/31 01:25:25;;;;;;;0.60;0.60;;;;;;;6.84;100.00;101929.34;5032829;28;20451;-49
2024/01/31 01:27:52;;;;;;;1.40;1.40;;;;;;;6.86;100.00;101931.13;5021256;28;20463;-50
2024/01/31 01:30:20;;;;;;;0.30;0.20;;;;;;;6.89;100.00;101936.47;5033675;28;20471;-49
2024/01/31 01:32:46;;;;;;;0.20;0.20;;;;;;;6.90;100.00;101938.22;5014938;28;20881;-50
2024/01/31 01:35:13;;;;;;;0.20;0.20;;;;;;;6.99;100.00;101933.03;5032421;28;20448;-50
2024/01/31 01:37:40;;;;;;;0.30;0.20;;;;;;;6.94;100.00;101934.75;5032187;28;20444;-50
2024/01/31 01:40:08;;;;;;;0.67;0.67;;;;;;;7.09;100.00;101934.94;5022928;28;20892;-50
2024/01/31 01:42:39;;;;;;;0.30;0.20;;;;;;;7.00;100.00;101921.63;5014787;28;20496;-50
2024/01/31 01:45:06;;;;;;;0.30;0.20;;;;;;;6.94;100.00;101918.88;5032772;28;20949;-50
2024/01/31 01:47:34;;;;;;;0.30;0.20;;;;;;;6.93;100.00;101925.94;5022523;28;20467;-50
2024/01/31 01:50:03;;;;;;;0.30;0.20;;;;;;;6.95;100.00;101918.00;5034505;28;20513;-50
2024/01/31 01:52:31;;;;;;;0.30;0.20;;;;;;;6.97;100.00;101922.44;5035716;28;20471;-50
2024/01/31 01:55:02;;;;;;;0.30;0.20;;;;;;;7.08;100.00;101938.44;5029474;28;20455;-50
2024/01/31 01:57:32;;;;;;;0.30;0.10;;;;;;;7.09;100.00;101940.22;5026682;28;20505;-50
2024/01/31 01:59:59;;;;;;;0.30;0.20;;;;;;;7.00;100.00;101948.06;5031963;28;20474;-50
2024/01/31 02:02:27;;;;;;;0.30;0.20;;;;;;;6.87;100.00;101946.13;5034412;28;20491;-50
2024/01/31 02:04:54;;;;;;;0.30;0.20;;;;;;;6.97;100.00;101934.78;5018587;28;20513;-50
2024/01/31 02:07:25;;;;;;;0.30;0.20;;;;;;;7.01;100.00;101944.53;5037288;28;20452;-50
2024/01/31 02:09:55;;;;;;;0.30;0.20;;;;;;;6.84;100.00;101942.53;5041955;28;20464;-50
2024/01/31 02:12:22;;;;;;;0.30;0.20;;;;;;;6.98;100.00;101941.84;5048847;28;20451;-49
2024/01/31 02:14:49;;;;;;;0.30;0.20;;;;;;;7.10;100.00;101934.94;5039524;28;20511;-50
2024/01/31 02:17:15;;;;;;;0.20;0.20;;;;;;;7.04;100.00;101936.66;5036661;28;20463;-50
2024/01/31 02:19:41;;;;;;;0.30;0.20;;;;;;;7.00;100.00;101948.06;5040291;28;20476;-50
2024/01/31 02:22:18;;;;;;;0.97;0.97;;;;;;;7.19;100.00;101939.47;5032146;28;20484;-50
2024/01/31 02:24:45;;;;;;;31.50;26.60;;;;;;;7.28;100.00;101942.25;5031582;28;20454;-50
2024/01/31 02:27:12;;;;;;;0.30;0.20;;;;;;;7.30;100.00;101951.06;5023277;28;20484;-51
2024/01/31 02:29:39;;;;;;;0.30;0.20;;;;;;;7.21;100.00;101958.88;5027026;28;20476;-51
2024/01/31 02:32:06;;;;;;;0.30;0.10;;;;;;;7.23;100.00;101937.75;5031800;28;20455;-51
2024/01/31 02:34:33;;;;;;;0.30;0.30;;;;;;;7.01;100.00;101942.78;5013854;28;20824;-50
2024/01/31 02:37:00;;;;;;;0.30;0.20;;;;;;;7.12;100.00;101938.50;5031565;28;20535;-50
2024/01/31 02:39:26;;;;;;;3.00;2.80;;;;;;;7.16;100.00;101946.50;5028004;28;20531;-50
2024/01/31 02:41:53;;;;;;;2.00;1.90;;;;;;;7.08;100.00;101941.09;5011705;28;20459;-50
2024/01/31 02:44:22;;;;;;;1.60;1.60;;;;;;;7.02;100.00;101943.69;5020962;28;20840;-50
2024/01/31 02:46:48;;;;;;;0.30;0.20;;;;;;;7.06;100.00;101951.66;5005712;28;20480;-50
2024/01/31 02:49:15;;;;;;;0.30;0.20;;;;;;;7.04;100.00;101953.41;5020803;28;20462;-50
2024/01/31 02:51:41;;;;;;;10.03;9.33;;;;;;;7.07;100.00;101952.53;5013041;28;20455;-50
2024/01/31 02:54:08;;;;;;;0.30;0.10;;;;;;;7.05;100.00;101949.88;5030997;28;20482;-50
2024/01/31 02:56:34;;;;;;;0.27;0.20;;;;;;;7.02;100.00;101949.84;5019728;28;20946;-50
2024/01/31 02:59:01;;;;;;;0.27;0.20;;;;;;;7.02;100.00;101944.56;5028783;28;20471;-49
2024/01/31 03:01:27;;;;;;;0.30;0.20;;;;;;;6.93;100.00;101939.16;5031306;28;20448;-49
2024/01/31 03:03:54;;;;;;;0.20;0.17;;;;;;;7.01;100.00;101936.63;5030870;28;20590;-49
2024/01/31 03:06:21;;;;;;;0.30;0.20;;;;;;;6.89;100.00;101950.56;5031316;28;20538;-49
2024/01/31 03:08:47;;;;;;;0.30;0.20;;;;;;;6.89;100.00;101944.38;5031320;28;20497;-49
2024/01/31 03:11:14;;;;;;;0.23;0.20;;;;;;;6.90;100.00;101952.34;5031637;28;20479;-49
2024/01/31 03:13:40;;;;;;;0.40;0.30;;;;;;;6.88;100.00;101954.06;5031315;28;20451;-49
2024/01/31 03:16:07;;;;;;;0.30;0.20;;;;;;;6.78;100.00;101945.13;5031978;28;20470;-49
2024/01/31 03:18:33;;;;;;;0.30;0.20;;;;;;;6.93;100.00;101946.19;5035402;28;20857;-49
2024/01/31 03:21:00;;;;;;;0.20;0.20;;;;;;;6.96;100.00;101956.81;5036091;28;20478;-49
2024/01/31 03:23:26;;;;;;;0.40;0.20;;;;;;;6.80;100.00;101963.63;5035871;28;20499;-49
2024/01/31 03:25:52;;;;;;;0.20;0.20;;;;;;;6.82;100.00;101970.72;5011200;28;20536;-49
2024/01/31 03:28:20;;;;;;;0.30;0.20;;;;;;;6.84;100.00;101970.72;5018557;28;20462;-49
2024/01/31 03:30:47;;;;;;;0.30;0.20;;;;;;;6.72;100.00;101971.47;5022824;28;20475;-49
2024/01/31 03:33:13;;;;;;;0.30;0.30;;;;;;;6.70;100.00;101975.81;5033536;28;20452;-49
2024/01/31 03:35:40;;;;;;;0.30;0.20;;;;;;;6.59;100.00;101979.19;5034827;28;20456;-50
2024/01/31 03:38:08;;;;;;;0.20;0.10;;;;;;;6.84;100.00;101981.31;5034463;28;20491;-50
2024/01/31 03:40:36;;;;;;;0.20;0.20;;;;;;;6.63;100.00;101978.38;5021309;28;20515;-49
2024/01/31 03:43:03;;;;;;;0.30;0.20;;;;;;;6.58;100.00;101985.31;5020748;28;20480;-49
2024/01/31 03:45:29;;;;;;;0.30;0.20;;;;;;;6.61;100.00;101983.63;5034431;28;20776;-49
2024/01/31 03:47:56;;;;;;;0.20;0.20;;;;;;;6.68;100.00;101984.59;5017419;28;21018;-49
2024/01/31 03:50:22;;;;;;;0.30;0.20;;;;;;;6.67;100.00;101983.72;5007698;28;21024;-49
2024/01/31 03:52:49;;;;;;;0.30;0.20;;;;;;;6.71;100.00;101989.91;5008127;28;20543;-49
2024/01/31 03:55:15;;;;;;;0.30;0.30;;;;;;;6.69;100.00;101991.66;5026603;28;20964;-49
2024/01/31 03:57:42;;;;;;;0.30;0.10;;;;;;;6.76;100.00;101988.25;5028786;28;20454;-49
2024/01/31 04:00:09;;;;;;;0.30;0.20;;;;;;;6.73;100.00;101989.09;5033866;28;20478;-49
2024/01/31 04:02:37;;;;;;;0.20;0.20;;;;;;;6.71;100.00;101984.63;5033943;28;20514;-49
2024/01/31 04:05:04;;;;;;;0.30;0.20;;;;;;;6.62;100.00;101984.53;5006887;28;20545;-49
2024/01/31 04:07:31;;;;;;;0.20;0.10;;;;;;;6.55;100.00;101980.88;5009056;28;20455;-49
2024/01/31 04:09:57;;;;;;;0.30;0.20;;;;;;;6.62;100.00;101981.88;5033477;28;20817;-49
2024/01/31 04:12:24;;;;;;;0.30;0.20;;;;;;;6.63;100.00;101992.47;5009839;28;20450;-48
2024/01/31 04:14:50;;;;;;;0.20;0.10;;;;;;;6.59;100.00;101988.00;5034017;28;20542;-49
2024/01/31 04:17:17;;;;;;;0.30;0.20;;;;;;;6.56;100.00;101987.06;5019204;28;20454;-48
2024/01/31 04:19:48;;;;;;;0.20;0.10;;;;;;;6.61;100.00;102001.25;5020875;28;20500;-48
2024/01/31 04:22:16;;;;;;;0.20;0.10;;;;;;;6.48;100.00;101993.13;5010886;28;20578;-48
2024/01/31 04:24:43;;;;;;;0.20;0.20;;;;;;;6.47;100.00;101991.34;5031304;28;20454;-48
2024/01/31 04:27:10;;;;;;;0.20;0.20;;;;;;;6.33;100.00;101992.00;5003178;28;20506;-48
2024/01/31 04:29:40;;;;;;;0.20;0.20;;;;;;;6.33;100.00;102000.81;5028637;28;20471;-48
2024/01/31 04:32:07;;;;;;;0.30;0.20;;;;;;;6.30;100.00;101992.81;5033376;28;20925;-49
2024/01/31 04:34:36;;;;;;;0.30;0.20;;;;;;;6.29;100.00;101995.44;5033686;28;20494;-49
2024/01/31 04:37:03;;;;;;;0.20;0.10;;;;;;;6.39;100.00;102000.91;5034201;28;20451;-49
2024/01/31 04:39:29;;;;;;;0.30;0.10;;;;;;;6.29;100.00;102003.34;5029598;28;21032;-49
2024/01/31 04:41:56;;;;;;;0.23;0.10;;;;;;;6.32;100.00;102001.69;5014232;28;20449;-49
2024/01/31 04:44:22;;;;;;;0.20;0.10;;;;;;;6.30;100.00;102005.13;5031194;28;20537;-49
2024/01/31 04:46:49;;;;;;;0.20;0.10;;;;;;;6.33;100.00;101998.16;5026331;28;20456;-49
2024/01/31 04:49:16;;;;;;;0.20;0.20;;;;;;;6.43;100.00;102002.72;5030469;28;20471;-49
2024/01/31 04:51:42;;;;;;;0.30;0.20;;;;;;;6.17;100.00;102007.59;5033246;28;20451;-49
2024/01/31 04:54:09;;;;;;;0.30;0.20;;;;;;;6.13;100.00;102007.50;5033181;28;20444;-49
2024/01/31 04:56:36;;;;;;;0.20;0.20;;;;;;;6.11;100.00;102003.94;5029842;28;20480;-49
2024/01/31 04:59:02;;;;;;;0.20;0.20;;;;;;;6.25;100.00;102002.41;5013364;28;20522;-49
2024/01/31 05:01:29;;;;;;;0.30;0.20;;;;;;;6.23;100.00;102001.50;5032956;28;20458;-49
2024/01/31 05:03:58;;;;;;;0.30;0.20;;;;;;;6.15;100.00;102003.13;5006241;28;20492;-50
2024/01/31 05:06:25;;;;;;;0.20;0.20;;;;;;;6.04;100.00;102002.06;5033151;28;20455;-49
2024/01/31 05:08:52;;;;;;;0.20;0.13;;;;;;;5.92;100.00;101998.34;5032929;28;20455;-49
2024/01/31 05:11:18;;;;;;;0.30;0.20;;;;;;;5.94;100.00;102003.66;5032794;28;20979;-49
2024/01/31 05:13:44;;;;;;;0.27;0.10;;;;;;;5.79;100.00;102013.91;5032669;28;21239;-49
2024/01/31 05:16:13;;;;;;;0.20;0.10;;;;;;;5.92;100.00;102008.00;5032627;28;20454;-49
2024/01/31 05:18:40;;;;;;;0.20;0.10;;;;;;;5.95;100.00;102013.34;5032759;28;20455;-48
2024/01/31 05:21:10;;;;;;;0.30;0.20;;;;;;;6.08;100.00;102011.81;5032920;28;20501;-48
2024/01/31 05:23:37;;;;;;;0.30;0.20;;;;;;;5.92;100.00;102022.09;5033121;28;20487;-48
2024/01/31 05:26:08;;;;;;;0.20;0.20;;;;;;;5.88;100.00;102011.41;5034053;28;20925;-49
2024/01/31 05:28:36;;;;;;;0.20;0.13;;;;;;;5.96;100.00;102012.47;5020189;28;20959;-48
2024/01/31 05:31:03;;;;;;;0.30;0.20;;;;;;;5.89;100.00;102010.53;5033559;28;20511;-49
2024/01/31 05:33:30;;;;;;;0.20;0.20;;;;;;;6.09;100.00;102003.91;5032839;28;20477;-49
2024/01/31 05:36:01;;;;;;;0.20;0.20;;;;;;;5.97;100.00;101998.41;5032996;28;20448;-48
2024/01/31 05:38:27;;;;;;;0.30;0.20;;;;;;;5.85;100.00;102006.06;5032973;28;20932;-50
2024/01/31 05:40:54;;;;;;;0.20;0.17;;;;;;;5.71;100.00;101999.66;5017203;28;20534;-49
2024/01/31 05:43:20;;;;;;;0.20;0.10;;;;;;;5.77;100.00;102003.31;5013475;28;21027;-48
2024/01/31 05:45:47;;;;;;;0.20;0.20;;;;;;;5.85;100.00;101998.16;5029271;28;20451;-49
2024/01/31 05:48:14;;;;;;;0.30;0.20;;;;;;;5.75;100.00;102001.47;5023546;28;20499;-48
2024/01/31 05:50:41;;;;;;;0.20;0.20;;;;;;;5.59;100.00;102005.59;5033546;28;20467;-49
2024/01/31 05:53:08;;;;;;;0.20;0.20;;;;;;;5.62;100.00;102005.66;5032468;28;20825;-49
2024/01/31 05:55:35;;;;;;;0.23;0.20;;;;;;;5.27;100.00;102008.47;5032291;28;20455;-49
2024/01/31 05:58:02;;;;;;;0.30;0.20;;;;;;;5.08;100.00;102015.97;5026792;28;20539;-49
2024/01/31 06:00:28;;;;;;;0.30;0.20;;;;;;;5.08;100.00;102013.34;5032494;28;20830;-49
2024/01/31 06:02:55;;;;;;;0.30;0.10;;;;;;;4.85;100.00;101997.00;5033243;28;20539;-49
2024/01/31 06:05:26;;;;;;;0.20;0.10;;;;;;;4.95;100.00;101991.97;5032621;28;21034;-48
2024/01/31 06:07:53;;;;;;;0.20;0.20;;;;;;;4.77;100.00;101988.91;5033090;28;20452;-49
2024/01/31 06:10:20;;;;;;;0.20;0.20;;;;;;;4.78;100.00;101987.19;5027574;28;20469;-48
2024/01/31 06:12:46;;;;;;;0.30;0.20;;;;;;;4.56;100.00;101986.69;5014265;28;20452;-48
2024/01/31 06:15:13;;;;;;;0.20;0.20;;;;;;;4.35;100.00;101983.53;5033320;28;20505;-47
2024/01/31 06:17:41;;;;;;;0.23;0.20;;;;;;;4.45;100.00;101983.81;5033939;28;20451;-48
2024/01/31 06:20:08;;;;;;;0.20;0.10;;;;;;;4.33;100.00;101990.53;5033348;28;20476;-46
2024/01/31 06:22:35;;;;;;;0.20;0.10;;;;;;;4.27;100.00;101986.00;5032963;28;20458;-48
2024/01/31 06:25:02;;;;;;;0.20;0.10;;;;;;;4.23;100.00;101992.03;4988584;28;20495;-49
2024/01/31 06:27:29;;;;;;;0.20;0.20;;;;;;;4.19;100.00;102002.47;5022116;28;20452;-47
2024/01/31 06:29:56;;;;;;;0.30;0.20;;;;;;;4.19;100.00;102003.34;5012583;28;20475;-47
2024/01/31 06:32:30;;;;;;;0.20;0.10;;;;;;;4.05;100.00;102002.09;5010904;28;20544;-46
2024/01/31 06:34:57;;;;;;;0.20;0.20;;;;;;;3.96;100.00;102015.91;5030331;28;20443;-47
2024/01/31 06:37:24;;;;;;;0.20;0.10;;;;;;;3.99;100.00;102023.00;5014373;28;20451;-48
2024/01/31 06:39:51;;;;;;;0.20;0.20;;;;;;;3.93;100.00;102018.47;5024599;28;20515;-48
2024/01/31 06:42:17;;;;;;;0.20;0.10;;;;;;;4.11;100.00;102025.94;5012302;28;20454;-48
2024/01/31 06:44:44;;;;;;;0.20;0.10;;;;;;;3.98;100.00;102030.00;5031493;28;21000;-47
2024/01/31 06:47:10;;;;;;;0.20;0.10;;;;;;;3.80;100.00;102035.66;5021427;28;20463;-48
2024/01/31 06:49:37;;;;;;;0.20;0.10;;;;;;;3.96;100.00;102036.94;5031388;28;20558;-47
2024/01/31 06:52:06;;;;;;;0.20;0.17;;;;;;;4.05;100.00;102028.41;5033953;28;20501;-46
2024/01/31 06:54:32;;;;;;;0.20;0.10;;;;;;;3.80;100.00;102026.88;5018782;28;20443;-47
2024/01/31 06:56:58;;;;;;;0.20;0.20;;;;;;;3.65;100.00;102032.59;5030798;28;20540;-47
2024/01/31 06:59:25;;;;;;;0.20;0.20;;;;;;;3.79;100.00;102031.25;5036269;28;20503;-48
2024/01/31 07:01:51;;;;;;;0.20;0.20;;;;;;;3.71;100.00;102034.53;5036281;28;20448;-49
2024/01/31 07:04:19;;;;;;;0.20;0.10;;;;;;;3.70;100.00;102035.34;5035505;28;20479;-49
2024/01/31 07:06:46;;;;;;;0.20;0.20;;;;;;;3.71;100.00;102043.31;5035606;28;20477;-48
2024/01/31 07:09:12;;;;;;;0.20;0.13;;;;;;;3.69;100.00;102044.09;5035717;28;20992;-49
2024/01/31 07:11:38;;;;;;;0.20;0.20;;;;;;;3.59;100.00;102037.72;5009397;28;20963;-48
2024/01/31 07:14:06;;;;;;;0.20;0.10;;;;;;;3.60;100.00;102023.72;5035698;28;20483;-48
2024/01/31 07:16:35;;;;;;;0.20;0.10;;;;;;;3.64;100.00;102056.22;5014387;28;20458;-49
2024/01/31 07:19:02;;;;;;;0.20;0.20;;;;;;;3.64;100.00;102053.59;5013170;28;20467;-49
2024/01/31 07:21:29;;;;;;;0.20;0.20;;;;;;;3.75;100.00;102044.28;5035562;28;20483;-49
2024/01/31 07:23:56;;;;;;;0.20;0.10;;;;;;;3.86;100.00;102037.56;5035313;28;21077;-50
2024/01/31 07:26:26;;;;;;;0.20;0.13;;;;;;;4.09;100.00;102043.41;5030692;28;20808;-50
2024/01/31 07:28:53;;;;;;;0.30;0.30;;;;;;;4.24;100.00;102045.56;5026023;28;20444;-51
2024/01/31 07:31:19;;;;;;;0.20;0.10;;;;;;;4.13;100.00;102059.34;5034910;28;20451;-50
2024/01/31 07:33:46;;;;;;;0.30;0.20;;;;;;;4.04;100.00;102061.72;5035140;28;20506;-50
2024/01/31 07:36:13;;;;;;;0.20;0.10;;;;;;;4.28;100.00;102065.88;5035711;28;20454;-49
2024/01/31 07:38:43;;;;;;;0.20;0.20;;;;;;;4.47;100.00;102057.56;5035481;28;20490;-50
2024/01/31 07:41:10;;;;;;;0.20;0.10;;;;;;;4.44;100.00;102053.13;5017432;28;20920;-50
2024/01/31 07:43:37;;;;;;;0.20;0.10;;;;;;;4.40;100.00;102056.53;5026120;28;20564;-50
2024/01/31 07:46:09;;;;;;;0.20;0.20;;;;;;;4.54;100.00;102051.63;5033129;28;20451;-50
2024/01/31 07:48:35;;;;;;;0.20;0.20;;;;;;;4.74;100.00;102065.25;5027206;28;20452;-50
2024/01/31 07:51:03;;;;;;;0.20;0.10;;;;;;;4.57;100.00;102069.22;5034715;28;21048;-50
2024/01/31 07:53:33;;;;;;;0.20;0.10;;;;;;;4.66;100.00;102064.16;5034754;28;20862;-50
2024/01/31 07:56:00;;;;;;;0.20;0.20;;;;;;;4.56;100.00;102067.44;5034339;28;21204;-50
2024/01/31 07:58:31;;;;;;;0.20;0.10;;;;;;;4.73;100.00;102071.38;5028765;28;20444;-50
2024/01/31 08:00:57;;;;;;;0.30;0.20;;;;;;;4.67;100.00;102069.50;5033857;28;20517;-50
2024/01/31 08:03:24;;;;;;;0.20;0.10;;;;;;;4.63;100.00;102061.47;5033421;28;20459;-50
2024/01/31 08:05:50;;;;;;;0.20;0.20;;;;;;;4.88;100.00;102055.91;5033900;28;20540;-50
2024/01/31 08:08:17;;;;;;;0.20;0.10;;;;;;;5.10;100.00;102052.03;5034198;28;20444;-50
2024/01/31 08:10:43;;;;;;;0.20;0.20;;;;;;;5.23;100.00;102053.19;5034642;28;20550;-49
2024/01/31 08:13:10;;;;;;;0.20;0.10;;;;;;;5.18;100.00;102042.53;5033975;28;20482;-50
2024/01/31 08:15:36;;;;;;;0.20;0.10;;;;;;;5.23;100.00;102055.84;5034922;28;20455;-50
2024/01/31 08:18:03;;;;;;;0.20;0.20;;;;;;;5.28;100.00;102060.34;5034680;28;20475;-50
2024/01/31 08:20:30;;;;;;;0.20;0.10;;;;;;;5.37;100.00;102064.03;5019638;28;21013;-50
2024/01/31 08:22:57;;;;;;;0.20;0.20;;;;;;;5.45;100.00;102065.06;5022823;28;20447;-50
2024/01/31 08:25:23;;;;;;;0.20;0.10;;;;;;;5.47;100.00;102058.06;5033625;28;20491;-50
2024/01/31 08:27:51;;;;;;;0.20;0.20;;;;;;;5.43;100.00;102061.50;5021236;28;20543;-53
2024/01/31 08:30:17;;;;;;;0.50;0.50;;;;;;;5.44;100.00;102055.38;5033617;28;20471;-50
2024/01/31 08:32:46;;;;;;;0.20;0.10;;;;;;;5.44;100.00;102058.03;5033355;28;20495;-50
2024/01/31 08:35:13;;;;;;;0.20;0.17;;;;;;;5.37;100.00;102061.41;5033316;28;20861;-50
2024/01/31 08:37:39;;;;;;;0.30;0.20;;;;;;;5.45;100.00;102060.69;5033234;28;20515;-50
2024/01/31 08:40:09;;;;;;;0.20;0.20;;;;;;;5.58;100.00;102067.09;5024645;28;20866;-49
2024/01/31 08:42:38;;;;;;;0.20;0.20;;;;;;;5.35;100.00;102062.25;5016533;28;20805;-49
2024/01/31 08:45:07;;;;;;;0.20;0.17;;;;;;;5.48;100.00;102062.50;5013897;28;20524;-51
2024/01/31 08:47:34;;;;;;;0.20;0.10;;;;;;;5.53;100.00;102069.66;5018197;28;20554;-50
2024/01/31 08:50:00;;;;;;;0.20;0.10;;;;;;;5.60;100.00;102060.09;5033503;28;20471;-50
2024/01/31 08:52:27;;;;;;;0.30;0.10;;;;;;;5.48;100.00;102047.59;5034057;28;20454;-51
2024/01/31 08:54:54;;;;;;;0.20;0.20;;;;;;;5.81;100.00;102052.63;5034036;28;20447;-50
2024/01/31 08:57:20;;;;;;;0.30;0.20;;;;;;;5.94;100.00;102053.78;5028471;28;20562;-50
2024/01/31 08:59:47;;;;;;;0.20;0.10;;;;;;;5.65;100.00;102051.44;5033864;28;20471;-50
2024/01/31 09:02:13;;;;;;;0.20;0.20;;;;;;;5.84;100.00;102057.97;5033418;28;20479;-51
2024/01/31 09:04:40;;;;;;;0.20;0.20;;;;;;;5.71;100.00;102062.97;5033428;28;21000;-50
2024/01/31 09:07:07;;;;;;;0.20;0.10;;;;;;;5.62;100.00;102067.22;5033570;28;20555;-51
2024/01/31 09:09:38;;;;;;;0.20;0.20;;;;;;;5.47;100.00;102056.31;5033212;28;20478;-50
2024/01/31 09:12:05;;;;;;;0.30;0.10;;;;;;;5.53;100.00;102058.22;5033502;28;20444;-51
2024/01/31 09:14:33;;;;;;;0.20;0.20;;;;;;;5.45;100.00;102055.41;5032353;28;20566;-50
2024/01/31 09:16:59;;;;;;;0.20;0.20;;;;;;;5.62;100.00;102053.16;5032919;28;20455;-51
2024/01/31 09:19:26;;;;;;;0.20;0.10;;;;;;;5.73;100.00;102055.97;5032929;28;20499;-50
2024/01/31 09:21:52;;;;;;;0.20;0.20;;;;;;;5.68;100.00;102055.88;5021985;28;21004;-49
2024/01/31 09:24:19;;;;;;;0.30;0.10;;;;;;;5.66;100.00;102039.16;5018436;28;20495;-49
2024/01/31 09:26:45;;;;;;;0.20;0.20;;;;;;;5.84;100.00;102033.31;5028891;28;20833;-49
2024/01/31 09:29:12;;;;;;;0.20;0.10;;;;;;;6.06;100.00;102048.75;5026212;28;20559;-49
2024/01/31 09:31:38;;;;;;;0.20;0.20;;;;;;;6.39;99.43;102032.59;5032723;28;20453;-49
2024/01/31 09:34:05;;;;;;;0.20;0.10;;;;;;;6.53;96.31;102035.44;5032445;28;20458;-49
2024/01/31 09:36:31;;;;;;;0.30;0.20;;;;;;;6.75;94.60;102026.13;5031765;28;20459;-50
2024/01/31 09:38:58;;;;;;;0.30;0.20;;;;;;;6.86;93.01;102021.00;5031974;28;20498;-52
2024/01/31 09:41:26;;;;;;;0.20;0.10;;;;;;;7.09;91.83;102014.25;5012436;28;20972;-50
2024/01/31 09:43:53;;;;;;;0.20;0.20;;;;;;;7.41;92.19;102018.22;5007946;28;20456;-50
2024/01/31 09:46:19;;;;;;;0.20;0.20;;;;;;;7.56;90.39;102017.53;5002415;28;20460;-49
2024/01/31 09:48:47;;;;;;;0.30;0.20;;;;;;;7.70;90.77;102026.50;5007780;28;20949;-49
2024/01/31 09:51:15;;;;;;;0.30;0.20;;;;;;;7.86;89.83;102031.94;5006385;28;20482;-50
2024/01/31 09:53:46;;;;;;;0.20;0.10;;;;;;;8.15;88.90;102032.25;5031811;28;20534;-50
2024/01/31 09:56:13;;;;;;;0.30;0.20;;;;;;;8.17;86.98;102028.72;5031609;28;20892;-50
2024/01/31 09:58:39;;;;;;;0.30;0.20;;;;;;;8.16;84.91;102036.66;5026262;28;20510;-50
2024/01/31 10:01:08;;;;;;;0.30;0.20;;;;;;;8.37;83.37;102028.06;5031843;28;20464;-50
2024/01/31 10:03:46;;;;;;;0.30;0.20;;;;;;;8.59;83.56;102025.59;5031380;28;20455;-51
2024/01/31 10:06:13;;;;;;;0.30;0.10;;;;;;;8.64;82.81;102020.34;5031711;28;20565;-50
2024/01/31 10:08:39;;;;;;;0.30;0.20;;;;;;;8.79;81.37;102007.19;5031627;28;21007;-50
2024/01/31 10:11:06;;;;;;;0.30;0.20;;;;;;;8.88;80.11;102004.56;5031797;28;20475;-50
2024/01/31 10:13:33;;;;;;;0.30;0.20;;;;;;;8.92;79.93;102015.22;5031515;28;20832;-51
2024/01/31 10:16:00;;;;;;;0.30;0.20;;;;;;;8.79;79.72;102001.88;5031602;28;20462;-50
2024/01/31 10:18:28;;;;;;;0.30;0.20;;;;;;;8.90;79.41;102001.91;5031452;28;20448;-50
2024/01/31 10:20:57;;;;;;;0.30;0.20;;;;;;;9.17;78.42;102014.44;5031700;28;20471;-51
2024/01/31 10:23:23;;;;;;;0.30;0.20;;;;;;;9.23;78.41;102005.66;5031562;28;20829;-51
2024/01/31 10:25:51;;;;;;;0.30;0.20;;;;;;;9.22;77.03;102014.50;5032361;28;20494;-51
2024/01/31 10:28:20;;;;;;;0.30;0.20;;;;;;;9.35;77.20;102006.59;5023267;28;20455;-51
2024/01/31 10:30:47;;;;;;;0.30;0.20;;;;;;;9.32;77.51;102010.97;5035316;28;20903;-51
2024/01/31 10:33:15;;;;;;;0.30;0.20;;;;;;;9.53;78.19;102005.75;5035614;28;20450;-51
2024/01/31 10:35:43;;;;;;;0.30;0.20;;;;;;;9.50;77.52;102011.06;5035647;28;20448;-51
2024/01/31 10:38:13;;;;;;;0.30;0.20;;;;;;;9.65;76.23;102011.13;5023253;28;20471;-51
2024/01/31 10:40:42;;;;;;;0.30;0.20;;;;;;;9.69;75.88;102009.34;5009171;28;20476;-51
2024/01/31 10:43:09;;;;;;;0.30;0.20;;;;;;;9.63;75.51;102006.69;5022378;28;20448;-51
2024/01/31 10:45:37;;;;;;;0.30;0.20;;;;;;;9.46;75.52;102010.19;5035109;28;20495;-51
2024/01/31 10:48:05;;;;;;;0.30;0.20;;;;;;;9.40;75.29;102018.09;5025063;28;20459;-51
2024/01/31 10:50:32;;;;;;;0.30;0.20;;;;;;;9.45;75.94;102024.31;5034746;28;20471;-51
2024/01/31 10:53:04;;;;;;;0.30;0.20;;;;;;;9.49;75.33;102012.84;5035113;28;20448;-51
2024/01/31 10:55:32;;;;;;;0.30;0.20;;;;;;;9.48;75.05;102015.50;5034804;28;20497;-50
2024/01/31 10:58:01;;;;;;;0.30;0.20;;;;;;;9.39;74.22;102013.69;5029105;28;20455;-51
2024/01/31 11:00:32;;;;;;;0.30;0.20;;;;;;;9.51;74.64;102020.81;5034970;28;20537;-51
2024/01/31 11:03:00;;;;;;;0.30;0.20;;;;;;;9.35;75.28;102016.31;5034849;28;20443;-51
2024/01/31 11:05:29;;;;;;;0.30;0.20;;;;;;;9.39;74.53;102012.78;5034644;28;20487;-50
2024/01/31 11:07:56;;;;;;;0.30;0.20;;;;;;;9.44;75.19;102021.66;5034850;28;20494;-50
2024/01/31 11:10:23;;;;;;;0.30;0.20;;;;;;;9.52;74.43;102022.56;5034432;28;20510;-54
2024/01/31 11:13:04;;;;;;;0.30;0.20;;;;;;;9.38;74.42;102018.97;5034892;28;20464;-50
2024/01/31 11:15:33;;;;;;;0.30;0.20;;;;;;;9.36;73.87;102020.75;5034666;28;20944;-50
2024/01/31 11:18:10;;;;;;;0.30;0.20;;;;;;;9.36;73.96;102015.44;5035312;28;20443;-50
2024/01/31 11:20:39;;;;;;;0.30;0.20;;;;;;;9.19;74.38;102021.56;5035187;28;20471;-50
2024/01/31 11:23:06;;;;;;;0.30;0.20;;;;;;;9.52;74.09;102008.41;5034565;28;20920;-51
2024/01/31 11:25:36;;;;;;;0.30;0.20;;;;;;;9.48;74.89;101996.91;5034582;28;20491;-50
2024/01/31 11:28:06;;;;;;;0.30;0.20;;;;;;;9.58;74.29;101998.69;5021904;28;20499;-51